createdAt,value
2023-06-21T00:01:38.768Z,100.00
2023-06-21T00:04:23.728Z,100.00
2023-06-21T00:07:21.767Z,100.00
2023-06-21T00:10:15.764Z,100.00
2023-06-21T00:13:07.745Z,100.00
2023-06-21T00:15:55.244Z,100.00
2023-06-21T00:18:46.762Z,100.00
2023-06-21T00:21:31.733Z,100.00
2023-06-21T00:24:22.847Z,100.00
2023-06-21T00:27:07.741Z,100.00
2023-06-21T00:29:58.767Z,100.00
2023-06-21T00:32:43.923Z,100.00
2023-06-21T00:35:35.777Z,100.00
2023-06-21T00:38:21.128Z,100.00
2023-06-21T00:41:12.768Z,100.00
2023-06-21T00:43:57.828Z,100.00
2023-06-21T00:46:49.824Z,100.00
2023-06-21T00:49:34.724Z,100.00
2023-06-21T00:52:26.746Z,100.00
2023-06-21T00:55:14.093Z,100.00
2023-06-21T00:58:05.763Z,100.00
2023-06-21T01:00:51.904Z,100.00
2023-06-21T01:03:44.765Z,100.00
2023-06-21T01:06:55.795Z,100.00
2023-06-21T01:09:50.481Z,100.00
2023-06-21T01:13:02.794Z,100.00
2023-06-21T01:15:55.378Z,100.00
2023-06-21T01:18:48.826Z,100.00
2023-06-21T01:21:40.778Z,100.00
2023-06-21T01:24:44.172Z,100.00
2023-06-21T01:27:55.773Z,100.00
2023-06-21T01:30:42.296Z,100.00
2023-06-21T01:33:35.780Z,100.00
2023-06-21T01:36:27.768Z,100.00
2023-06-21T01:39:18.796Z,100.00
2023-06-21T01:42:05.860Z,100.00
2023-06-21T01:44:57.789Z,100.00
2023-06-21T01:47:45.121Z,100.00
2023-06-21T01:50:38.785Z,100.00
2023-06-21T01:53:31.802Z,100.00
2023-06-21T01:56:25.804Z,100.00
2023-06-21T01:59:17.802Z,100.00
2023-06-21T02:02:04.724Z,100.00
2023-06-21T02:04:57.850Z,100.00
2023-06-21T02:07:56.818Z,100.00
2023-06-21T02:10:48.834Z,100.00
2023-06-21T02:13:33.709Z,100.00
2023-06-21T02:16:26.823Z,100.00
2023-06-21T02:19:17.798Z,100.00
2023-06-21T02:22:09.803Z,100.00
2023-06-21T02:24:54.570Z,100.00
2023-06-21T02:27:46.810Z,100.00
2023-06-21T02:30:31.454Z,100.00
2023-06-21T02:33:22.867Z,100.00
2023-06-21T02:36:14.794Z,100.00
2023-06-21T02:39:06.847Z,100.00
2023-06-21T02:41:52.718Z,100.00
2023-06-21T02:44:44.834Z,100.00
2023-06-21T02:47:36.834Z,100.00
2023-06-21T02:50:22.085Z,100.00
2023-06-21T02:53:13.817Z,100.00
2023-06-21T02:55:58.939Z,100.00
2023-06-21T02:58:49.814Z,100.00
2023-06-21T03:01:34.651Z,100.00
2023-06-21T03:04:25.828Z,100.00
2023-06-21T03:07:18.403Z,100.00
2023-06-21T03:10:10.830Z,100.00
2023-06-21T03:12:56.016Z,100.00
2023-06-21T03:15:47.835Z,100.00
2023-06-21T03:18:32.720Z,100.00
2023-06-21T03:21:23.871Z,100.00
2023-06-21T03:24:08.981Z,100.00
2023-06-21T03:27:00.824Z,100.00
2023-06-21T03:29:45.990Z,100.00
2023-06-21T03:32:37.901Z,100.00
2023-06-21T03:35:23.552Z,100.00
2023-06-21T03:38:14.841Z,100.00
2023-06-21T03:41:00.146Z,100.00
2023-06-21T03:43:51.843Z,100.00
2023-06-21T03:46:42.978Z,100.00
2023-06-21T03:49:34.840Z,100.00
2023-06-21T03:52:19.768Z,100.00
2023-06-21T03:55:12.846Z,100.00
2023-06-21T03:57:57.893Z,100.00
2023-06-21T04:00:49.866Z,100.00
2023-06-21T04:03:34.827Z,100.00
2023-06-21T04:06:33.831Z,100.00
2023-06-21T04:09:19.107Z,100.00
2023-06-21T04:12:10.841Z,100.00
2023-06-21T04:15:02.891Z,100.00
2023-06-21T04:17:50.358Z,100.00
2023-06-21T04:20:41.836Z,100.00
2023-06-21T04:23:29.745Z,100.00
2023-06-21T04:26:22.032Z,100.00
2023-06-21T04:29:07.711Z,100.00
2023-06-21T04:31:59.869Z,100.00
2023-06-21T04:34:44.617Z,100.00
2023-06-21T04:37:36.848Z,100.00
2023-06-21T04:40:29.878Z,100.00
2023-06-21T04:43:20.857Z,100.00
2023-06-21T04:46:11.870Z,100.00
2023-06-21T04:48:56.733Z,100.00
2023-06-21T04:51:50.854Z,100.00
2023-06-21T04:54:42.947Z,100.00
2023-06-21T04:57:28.125Z,100.00
2023-06-21T05:00:20.872Z,100.00
2023-06-21T05:03:12.907Z,100.00
2023-06-21T05:06:11.873Z,100.00
2023-06-21T05:09:11.874Z,100.00
2023-06-21T05:12:03.849Z,100.00
2023-06-21T05:14:48.700Z,100.00
2023-06-21T05:17:41.875Z,100.00
2023-06-21T05:20:27.385Z,100.00
2023-06-21T05:23:18.880Z,100.00
2023-06-21T05:26:05.320Z,100.00
2023-06-21T05:28:57.869Z,100.00
2023-06-21T05:31:50.867Z,100.00
2023-06-21T05:34:35.844Z,100.00
2023-06-21T05:37:26.871Z,100.00
2023-06-21T05:40:12.720Z,100.00
2023-06-21T05:43:08.862Z,100.00
2023-06-21T05:45:54.275Z,100.00
2023-06-21T05:48:45.880Z,100.00
2023-06-21T05:51:30.657Z,100.00
2023-06-21T05:54:21.896Z,100.00
2023-06-21T05:57:07.860Z,100.00
2023-06-21T05:59:58.901Z,100.00
2023-06-21T06:02:44.477Z,100.00
2023-06-21T06:05:35.924Z,100.00
2023-06-21T06:08:27.962Z,100.00
2023-06-21T06:11:19.889Z,100.00
2023-06-21T06:14:05.444Z,100.00
2023-06-21T06:16:56.884Z,100.00
2023-06-21T06:19:41.935Z,100.00
2023-06-21T06:22:32.899Z,100.00
2023-06-21T06:25:18.044Z,100.00
2023-06-21T06:28:09.893Z,100.00
2023-06-21T06:30:54.874Z,100.00
2023-06-21T06:33:46.900Z,100.00
2023-06-21T06:36:31.660Z,100.00
2023-06-21T06:39:22.915Z,100.00
2023-06-21T06:42:09.438Z,100.00
2023-06-21T06:45:00.909Z,100.00
2023-06-21T06:47:45.939Z,100.00
2023-06-21T06:50:36.927Z,100.00
2023-06-21T06:53:21.816Z,100.00
2023-06-21T06:56:12.921Z,100.00
2023-06-21T06:59:03.968Z,100.00
2023-06-21T07:01:49.253Z,100.00
2023-06-21T07:04:42.048Z,100.00
2023-06-21T07:07:33.934Z,100.00
2023-06-21T07:10:20.558Z,100.00
2023-06-21T07:13:12.928Z,100.00
2023-06-21T07:16:00.703Z,100.00
2023-06-21T07:18:51.921Z,100.00
2023-06-21T07:21:36.662Z,100.00
2023-06-21T07:24:27.938Z,100.00
2023-06-21T07:27:13.038Z,100.00
2023-06-21T07:30:03.937Z,100.00
2023-06-21T07:32:49.984Z,100.00
2023-06-21T07:35:41.919Z,100.00
2023-06-21T07:38:33.931Z,100.00
2023-06-21T07:41:24.925Z,100.00
2023-06-21T07:44:10.852Z,100.00
2023-06-21T07:47:02.004Z,100.00
2023-06-21T07:49:53.953Z,100.00
2023-06-21T07:52:38.726Z,100.00
2023-06-21T07:55:30.144Z,87.69
2023-06-21T07:58:15.603Z,89.46
2023-06-21T08:01:06.934Z,81.36
2023-06-21T08:03:58.981Z,81.59
2023-06-21T08:07:03.930Z,70.74
2023-06-21T08:09:54.957Z,75.48
2023-06-21T08:12:39.936Z,90.09
2023-06-21T08:15:31.967Z,70.68
2023-06-21T08:18:16.903Z,91.30
2023-06-21T08:21:07.942Z,100.00
2023-06-21T08:23:53.006Z,100.00
2023-06-21T08:26:45.008Z,100.00
2023-06-21T08:29:36.982Z,100.00
2023-06-21T08:32:21.953Z,100.00
2023-06-21T08:35:13.963Z,100.00
2023-06-21T08:38:22.578Z,100.00
2023-06-21T08:41:18.967Z,100.00
2023-06-21T08:44:10.962Z,100.00
2023-06-21T08:46:57.056Z,100.00
2023-06-21T08:49:48.962Z,100.00
2023-06-21T08:52:35.581Z,100.00
2023-06-21T08:55:30.125Z,100.00
2023-06-21T08:58:21.375Z,81.18
2023-06-21T09:01:17.073Z,89.43
2023-06-21T09:04:11.166Z,88.15
2023-06-21T09:07:16.036Z,94.04
2023-06-21T09:10:10.972Z,100.00
2023-06-21T09:12:58.232Z,100.00
2023-06-21T09:15:51.996Z,100.00
2023-06-21T09:18:44.987Z,100.00
2023-06-21T09:21:30.527Z,100.00
2023-06-21T09:24:22.051Z,95.24
2023-06-21T09:27:12.999Z,76.59
2023-06-21T09:30:17.509Z,70.28
2023-06-21T09:33:09.400Z,59.58
2023-06-21T09:36:01.057Z,83.54
2023-06-21T09:38:51.983Z,87.73
2023-06-21T09:41:44.005Z,85.25
2023-06-21T09:44:34.862Z,81.19
2023-06-21T09:47:26.069Z,80.17
2023-06-21T09:50:12.565Z,76.33
2023-06-21T09:53:04.007Z,84.26
2023-06-21T09:55:48.738Z,94.99
2023-06-21T09:58:43.986Z,96.89
2023-06-21T10:01:43.645Z,84.33
2023-06-21T10:04:35.996Z,80.02
2023-06-21T10:07:27.560Z,66.97
2023-06-21T10:10:20.021Z,80.82
2023-06-21T10:13:05.115Z,78.24
2023-06-21T10:15:56.008Z,76.93
2023-06-21T10:18:40.958Z,72.40
2023-06-21T10:21:33.012Z,77.94
2023-06-21T10:24:21.253Z,72.74
2023-06-21T10:27:14.039Z,64.66
2023-06-21T10:30:01.177Z,73.63
2023-06-21T10:32:55.047Z,81.83
2023-06-21T10:35:46.070Z,92.69
2023-06-21T10:38:45.035Z,100.00
2023-06-21T10:41:31.369Z,100.00
2023-06-21T10:44:24.976Z,100.00
2023-06-21T10:47:11.058Z,100.00
2023-06-21T10:50:08.015Z,100.00
2023-06-21T10:52:58.411Z,100.00
2023-06-21T10:55:50.043Z,100.00
2023-06-21T10:58:43.334Z,100.00
2023-06-21T11:01:37.081Z,100.00
2023-06-21T11:04:22.093Z,100.00
2023-06-21T11:07:20.027Z,100.00
2023-06-21T11:10:19.026Z,100.00
2023-06-21T11:13:10.038Z,100.00
2023-06-21T11:15:55.112Z,100.00
2023-06-21T11:18:47.049Z,100.00
2023-06-21T11:21:41.468Z,100.00
2023-06-21T11:24:34.044Z,100.00
2023-06-21T11:27:18.995Z,100.00
2023-06-21T11:30:17.027Z,100.00
2023-06-21T11:33:09.069Z,100.00
2023-06-21T11:35:53.824Z,100.00
2023-06-21T11:38:54.075Z,100.00
2023-06-21T11:41:52.045Z,100.00
2023-06-21T11:44:38.055Z,100.00
2023-06-21T11:47:29.132Z,100.00
2023-06-21T11:50:14.878Z,100.00
2023-06-21T11:53:26.067Z,100.00
2023-06-21T11:56:14.987Z,100.00
2023-06-21T11:59:07.076Z,100.00
2023-06-21T12:01:52.497Z,100.00
2023-06-21T12:04:46.312Z,100.00
2023-06-21T12:07:38.602Z,100.00
2023-06-21T12:10:31.353Z,100.00
2023-06-21T12:13:19.215Z,100.00
2023-06-21T12:16:25.080Z,100.00
2023-06-21T12:19:24.067Z,100.00
2023-06-21T12:22:08.956Z,100.00
2023-06-21T12:25:02.143Z,100.00
2023-06-21T12:27:53.960Z,100.00
2023-06-21T12:31:06.124Z,100.00
2023-06-21T12:34:01.803Z,100.00
2023-06-21T12:36:54.085Z,100.00
2023-06-21T12:39:40.536Z,100.00
2023-06-21T12:42:37.102Z,100.00
2023-06-21T12:45:22.158Z,100.00
2023-06-21T12:48:14.071Z,100.00
2023-06-21T12:50:59.031Z,100.00
2023-06-21T12:53:51.285Z,100.00
2023-06-21T12:56:40.510Z,100.00
2023-06-21T12:59:32.114Z,100.00
2023-06-21T13:02:17.433Z,100.00
2023-06-21T13:05:09.118Z,100.00
2023-06-21T13:08:15.115Z,100.00
2023-06-21T13:11:08.155Z,100.00
2023-06-21T13:14:00.085Z,100.00
2023-06-21T13:16:45.123Z,100.00
2023-06-21T13:19:36.086Z,100.00
2023-06-21T13:22:21.861Z,100.00
2023-06-21T13:25:14.209Z,100.00
2023-06-21T13:27:59.278Z,100.00
2023-06-21T13:30:51.121Z,100.00
2023-06-21T13:33:36.415Z,100.00
2023-06-21T13:36:28.109Z,100.00
2023-06-21T13:39:13.772Z,100.00
2023-06-21T13:42:05.104Z,100.00
2023-06-21T13:44:49.970Z,100.00
2023-06-21T13:47:42.118Z,100.00
2023-06-21T13:50:27.282Z,100.00
2023-06-21T13:53:19.091Z,100.00
2023-06-21T13:56:10.124Z,100.00
2023-06-21T13:58:55.281Z,100.00
2023-06-21T14:01:47.131Z,100.00
2023-06-21T14:04:38.285Z,100.00
2023-06-21T14:07:37.130Z,100.00
2023-06-21T14:10:35.120Z,100.00
2023-06-21T14:13:22.673Z,100.00
2023-06-21T14:16:14.247Z,100.00
2023-06-21T14:18:59.457Z,100.00
2023-06-21T14:21:54.120Z,100.00
2023-06-21T14:24:46.110Z,100.00
2023-06-21T14:27:31.488Z,100.00
2023-06-21T14:30:24.260Z,100.00
2023-06-21T14:33:09.669Z,100.00
2023-06-21T14:36:01.149Z,100.00
2023-06-21T14:38:53.171Z,100.00
2023-06-21T14:41:38.195Z,100.00
2023-06-21T14:44:29.113Z,100.00
2023-06-21T14:47:14.193Z,100.00
2023-06-21T14:50:05.282Z,100.00
2023-06-21T14:52:51.358Z,100.00
2023-06-21T14:55:43.159Z,100.00
2023-06-21T14:58:28.358Z,100.00
2023-06-21T15:01:21.343Z,99.23
2023-06-21T15:04:07.134Z,100.00
2023-06-21T15:06:59.159Z,99.91
2023-06-21T15:09:55.064Z,100.00
2023-06-21T15:13:00.019Z,96.58
2023-06-21T15:15:46.259Z,93.03
2023-06-21T15:18:38.166Z,95.17
2023-06-21T15:21:23.334Z,94.05
2023-06-21T15:24:15.212Z,92.83
2023-06-21T15:27:00.105Z,93.45
2023-06-21T15:29:52.132Z,92.87
2023-06-21T15:32:44.261Z,93.17
2023-06-21T15:35:29.475Z,92.16
2023-06-21T15:38:21.165Z,97.31
2023-06-21T15:41:12.182Z,91.42
2023-06-21T15:43:57.020Z,94.91
2023-06-21T15:46:51.174Z,93.08
2023-06-21T15:49:43.168Z,94.23
2023-06-21T15:52:28.147Z,94.27
2023-06-21T15:55:20.217Z,93.19
2023-06-21T15:58:06.027Z,99.43
2023-06-21T16:00:57.168Z,98.30
2023-06-21T16:03:50.670Z,95.99
2023-06-21T16:06:42.165Z,92.06
2023-06-21T16:09:47.163Z,92.48
2023-06-21T16:12:31.903Z,95.14
2023-06-21T16:15:23.209Z,93.94
2023-06-21T16:18:08.021Z,92.52
2023-06-21T16:20:59.168Z,92.02
2023-06-21T16:23:44.094Z,95.01
2023-06-21T16:26:36.204Z,100.00
2023-06-21T16:29:28.166Z,93.58
2023-06-21T16:32:19.181Z,92.79
2023-06-21T16:35:04.754Z,95.09
2023-06-21T16:37:56.314Z,93.29
2023-06-21T16:40:41.168Z,96.22
2023-06-21T16:43:33.218Z,97.95
2023-06-21T16:46:25.225Z,100.00
2023-06-21T16:49:10.359Z,92.55
2023-06-21T16:52:02.191Z,93.51
2023-06-21T16:54:54.218Z,92.08
2023-06-21T16:57:39.159Z,99.74
2023-06-21T17:00:31.275Z,96.51
2023-06-21T17:03:17.512Z,95.14
2023-06-21T17:06:09.198Z,91.63
2023-06-21T17:09:14.198Z,98.58
2023-06-21T17:12:07.204Z,98.43
2023-06-21T17:14:52.328Z,96.60
2023-06-21T17:17:44.280Z,94.36
2023-06-21T17:20:29.634Z,96.13
2023-06-21T17:23:21.222Z,96.91
2023-06-21T17:26:07.340Z,100.00
2023-06-21T17:28:59.210Z,95.51
2023-06-21T17:31:44.055Z,94.96
2023-06-21T17:34:36.179Z,95.01
2023-06-21T17:37:28.210Z,96.63
2023-06-21T17:40:13.463Z,96.72
2023-06-21T17:43:05.214Z,95.44
2023-06-21T17:45:50.235Z,96.70
2023-06-21T17:48:41.322Z,100.00
2023-06-21T17:51:26.840Z,100.00
2023-06-21T17:54:18.210Z,97.04
2023-06-21T17:57:03.638Z,100.00
2023-06-21T17:59:55.215Z,93.69
2023-06-21T18:02:40.528Z,95.65
2023-06-21T18:05:32.226Z,93.89
2023-06-21T18:08:23.406Z,99.55
2023-06-21T18:11:15.218Z,97.08
2023-06-21T18:14:00.699Z,98.90
2023-06-21T18:16:52.230Z,98.02
2023-06-21T18:19:37.069Z,100.00
2023-06-21T18:22:41.683Z,100.00
2023-06-21T18:25:28.741Z,100.00
2023-06-21T18:28:20.240Z,100.00
2023-06-21T18:31:05.128Z,100.00
2023-06-21T18:33:56.242Z,100.00
2023-06-21T18:36:41.170Z,100.00
2023-06-21T18:39:32.263Z,100.00
2023-06-21T18:42:24.247Z,100.00
2023-06-21T18:45:09.512Z,100.00
2023-06-21T18:48:01.429Z,100.00
2023-06-21T18:50:53.243Z,100.00
2023-06-21T18:53:38.202Z,100.00
2023-06-21T18:56:29.287Z,100.00
2023-06-21T18:59:14.689Z,100.00
2023-06-21T19:02:06.304Z,100.00
2023-06-21T19:04:59.307Z,100.00
2023-06-21T19:07:58.290Z,100.00
2023-06-21T19:10:49.598Z,100.00
2023-06-21T19:13:41.261Z,100.00
2023-06-21T19:16:33.244Z,100.00
2023-06-21T19:19:24.317Z,100.00
2023-06-21T19:22:14.487Z,100.00
2023-06-21T19:25:07.258Z,100.00
2023-06-21T19:27:58.272Z,100.00
2023-06-21T19:30:49.318Z,100.00
2023-06-21T19:33:34.084Z,100.00
2023-06-21T19:36:26.259Z,100.00
2023-06-21T19:39:11.179Z,100.00
2023-06-21T19:42:03.267Z,100.00
2023-06-21T19:44:48.328Z,100.00
2023-06-21T19:47:40.367Z,100.00
2023-06-21T19:50:25.501Z,100.00
2023-06-21T19:53:17.297Z,100.00
2023-06-21T19:56:02.378Z,100.00
2023-06-21T19:58:54.283Z,100.00
2023-06-21T20:01:39.573Z,100.00
2023-06-21T20:04:31.264Z,100.00
2023-06-21T20:07:23.338Z,100.00
2023-06-21T20:10:21.277Z,100.00
2023-06-21T20:13:06.753Z,100.00
2023-06-21T20:16:00.353Z,100.00
2023-06-21T20:18:52.297Z,100.00
2023-06-21T20:21:44.272Z,100.00
2023-06-21T20:24:29.249Z,100.00
2023-06-21T20:27:20.287Z,100.00
2023-06-21T20:30:05.939Z,100.00
2023-06-21T20:32:57.373Z,100.00
2023-06-21T20:35:50.560Z,100.00
2023-06-21T20:38:36.953Z,100.00
2023-06-21T20:41:28.311Z,100.00
2023-06-21T20:44:15.205Z,100.00
2023-06-21T20:47:07.301Z,100.00
2023-06-21T20:49:52.091Z,100.00
2023-06-21T20:52:43.303Z,100.00
2023-06-21T20:55:28.214Z,100.00
2023-06-21T20:58:20.311Z,100.00
2023-06-21T21:01:05.496Z,100.00
2023-06-21T21:03:59.338Z,100.00
2023-06-21T21:06:44.373Z,100.00
2023-06-21T21:09:42.314Z,100.00
2023-06-21T21:12:27.474Z,100.00
2023-06-21T21:15:18.394Z,100.00
2023-06-21T21:18:03.978Z,100.00
2023-06-21T21:20:55.415Z,100.00
2023-06-21T21:23:47.331Z,100.00
2023-06-21T21:26:32.232Z,100.00
2023-06-21T21:29:24.310Z,100.00
2023-06-21T21:32:16.318Z,100.00
2023-06-21T21:35:07.308Z,100.00
2023-06-21T21:37:59.321Z,100.00
2023-06-21T21:40:51.320Z,100.00
2023-06-21T21:43:42.325Z,100.00
2023-06-21T21:46:27.159Z,100.00
2023-06-21T21:49:18.323Z,100.00
2023-06-21T21:52:03.808Z,100.00
2023-06-21T21:54:55.317Z,100.00
2023-06-21T21:57:46.333Z,100.00
2023-06-21T22:00:31.363Z,100.00
2023-06-21T22:03:23.438Z,100.00
2023-06-21T22:06:08.961Z,100.00
2023-06-21T22:09:07.355Z,100.00
2023-06-21T22:11:58.365Z,100.00
2023-06-21T22:14:49.310Z,100.00
2023-06-21T22:17:34.548Z,100.00
2023-06-21T22:20:26.568Z,100.00
2023-06-21T22:23:12.307Z,100.00
2023-06-21T22:26:05.328Z,100.00
2023-06-21T22:28:50.077Z,100.00
2023-06-21T22:31:41.362Z,100.00
2023-06-21T22:34:26.818Z,100.00
2023-06-21T22:37:18.419Z,100.00
2023-06-21T22:40:05.965Z,100.00
2023-06-21T22:42:58.384Z,100.00
2023-06-21T22:45:44.910Z,100.00
2023-06-21T22:48:36.369Z,100.00
2023-06-21T22:51:21.534Z,100.00
2023-06-21T22:54:15.356Z,100.00
2023-06-21T22:57:00.985Z,100.00
2023-06-21T22:59:52.340Z,100.00
2023-06-21T23:05:27.347Z,100.00
2023-06-21T23:08:19.387Z,100.00
2023-06-21T23:11:11.365Z,100.00
2023-06-21T23:14:03.386Z,100.00
2023-06-21T23:16:48.420Z,100.00
2023-06-21T23:19:45.347Z,100.00
2023-06-21T23:22:30.400Z,100.00
2023-06-21T23:25:21.373Z,100.00
2023-06-21T23:28:09.446Z,100.00
2023-06-21T23:31:04.434Z,100.00
2023-06-21T23:33:49.416Z,100.00
2023-06-21T23:36:43.061Z,100.00
2023-06-21T23:39:29.420Z,100.00
2023-06-21T23:42:20.373Z,100.00
2023-06-21T23:45:14.352Z,100.00
2023-06-21T23:47:59.372Z,100.00
2023-06-21T23:50:52.386Z,100.00
2023-06-21T23:53:39.201Z,100.00
2023-06-21T23:56:34.365Z,100.00
2023-06-21T23:59:19.241Z,100.00
